Time;durP1;ratioP1;P1;durP2;ratioP2;P2;SDS_P1;SDS_P2;PMS_P1;PMS_P2;Temp;Humidity;BMP_temperature;BMP_pressure;BME280_temperature;BME280_humidity;BME280_pressure;Samples;Min_cycle;Max_cycle;Signal;HPM_P1;HPM_P2
2024/01/23 00:01:11;;;;;;;15.80;4.80;;;10.20;55.60;;;;;;5051219;28;20036;-76
2024/01/23 00:03:37;;;;;;;21.80;5.10;;;10.50;30.80;;;;;;5067722;28;20044;-79
2024/01/23 00:06:03;;;;;;;19.38;4.82;;;10.10;24.70;;;;;;5028849;28;20048;-80
2024/01/23 00:08:29;;;;;;;20.98;5.00;;;10.50;1.00;;;;;;5025117;28;20033;-79
2024/01/23 00:10:56;;;;;;;16.02;4.50;;;10.40;1.00;;;;;;5049270;28;20036;-79
2024/01/23 00:13:22;;;;;;;23.70;4.75;;;10.40;1.00;;;;;;5030302;28;20186;-80
2024/01/23 00:15:48;;;;;;;19.85;5.18;;;10.10;1.00;;;;;;5031113;28;20532;-79
2024/01/23 00:18:14;;;;;;;23.15;5.25;;;10.40;1.00;;;;;;5047130;28;20111;-82
2024/01/23 00:20:40;;;;;;;16.83;4.20;;;10.10;1.00;;;;;;5067649;28;20162;-81
2024/01/23 00:23:07;;;;;;;18.30;4.50;;;10.30;1.00;;;;;;5032473;28;20119;-80
2024/01/23 00:25:33;;;;;;;23.15;4.88;;;10.30;1.00;;;;;;5051590;28;20127;-79
2024/01/23 00:27:59;;;;;;;20.63;4.80;;;10.30;5.40;;;;;;5053119;28;20127;-78
2024/01/23 00:30:25;;;;;;;17.45;5.10;;;10.20;1.00;;;;;;5019685;28;20040;-77
2024/01/23 00:32:50;;;;;;;16.70;5.00;;;10.20;1.00;;;;;;5016757;28;20093;-76
2024/01/23 00:35:16;;;;;;;19.85;5.10;;;9.80;2.90;;;;;;5066314;28;20047;-79
2024/01/23 00:37:42;;;;;;;18.42;5.00;;;10.20;15.20;;;;;;5035734;28;20518;-77
2024/01/23 00:40:11;;;;;;;15.55;4.25;;;9.80;13.20;;;;;;5034991;28;20048;-79
2024/01/23 00:42:36;;;;;;;20.30;4.78;;;10.30;11.80;;;;;;5069600;28;20047;-76
2024/01/23 00:45:03;;;;;;;22.02;5.00;;;10.10;7.60;;;;;;5068230;28;20048;-78
2024/01/23 00:47:30;;;;;;;15.35;4.55;;;10.20;1.00;;;;;;5051831;28;20048;-76
2024/01/23 00:49:56;;;;;;;18.77;4.45;;;9.80;1.00;;;;;;5053153;28;20036;-80
2024/01/23 00:52:22;;;;;;;17.73;5.05;;;10.10;12.80;;;;;;5071254;28;20037;-80
2024/01/23 00:54:48;;;;;;;18.13;4.80;;;10.00;22.10;;;;;;5043855;28;20040;-78
2024/01/23 00:57:13;;;;;;;22.20;5.43;;;10.30;1.00;;;;;;5031061;28;20481;-78
2024/01/23 00:59:39;;;;;;;23.10;4.97;;;10.20;1.00;;;;;;5033378;28;20036;-78
2024/01/23 01:02:05;;;;;;;17.63;4.80;;;9.90;1.00;;;;;;5052509;28;20048;-78
2024/01/23 01:04:31;;;;;;;21.35;4.60;;;9.90;1.00;;;;;;5037579;28;20041;-79
2024/01/23 01:06:56;;;;;;;20.05;5.38;;;9.80;1.00;;;;;;5033902;28;20650;-79
2024/01/23 01:09:22;;;;;;;16.88;4.68;;;10.20;1.00;;;;;;5079400;28;20045;-78
2024/01/23 01:11:48;;;;;;;21.02;5.45;;;10.10;1.00;;;;;;5069049;28;20439;-79
2024/01/23 01:14:14;;;;;;;20.52;4.75;;;10.20;1.00;;;;;;5050071;28;20029;-78
2024/01/23 01:16:40;;;;;;;15.85;4.72;;;10.10;1.00;;;;;;5066610;28;20044;-77
2024/01/23 01:19:05;;;;;;;19.30;5.10;;;10.20;1.00;;;;;;5052236;28;20045;-77
2024/01/23 01:21:31;;;;;;;16.20;4.95;;;10.10;1.00;;;;;;5070680;28;20033;-79
2024/01/23 01:23:57;;;;;;;24.83;4.75;;;9.80;1.00;;;;;;5052890;28;20055;-79
2024/01/23 01:26:22;;;;;;;20.45;5.05;;;10.10;1.00;;;;;;5029447;28;20052;-79
2024/01/23 01:28:48;;;;;;;21.15;5.25;;;10.00;1.00;;;;;;5049133;28;20404;-78
2024/01/23 01:31:14;;;;;;;19.48;4.88;;;10.10;1.00;;;;;;5053549;28;20087;-79
2024/01/23 01:33:39;;;;;;;20.65;4.75;;;10.00;1.00;;;;;;5053055;28;20078;-77
2024/01/23 01:36:05;;;;;;;18.48;4.70;;;10.10;1.00;;;;;;5048010;28;20033;-77
2024/01/23 01:38:31;;;;;;;17.73;5.10;;;9.60;1.00;;;;;;5032116;28;20098;-77
2024/01/23 01:40:58;;;;;;;23.35;5.72;;;9.50;12.50;;;;;;5051110;28;20045;-78
2024/01/23 01:43:26;;;;;;;18.13;4.70;;;10.10;17.80;;;;;;5067406;28;20047;-77
2024/01/23 01:46:23;;;;;;;20.13;5.00;;;9.60;27.10;;;;;;5060570;28;20372;-78
2024/01/23 01:48:49;;;;;;;22.42;4.88;;;10.00;47.30;;;;;;5074413;28;20036;-78
2024/01/23 01:51:17;;;;;;;22.85;5.45;;;9.50;63.00;;;;;;5051969;28;20040;-79
2024/01/23 01:53:44;;;;;;;22.08;4.97;;;9.90;92.40;;;;;;5069919;28;20049;-79
2024/01/23 01:56:11;;;;;;;19.48;6.00;;;9.60;97.70;;;;;;5066224;28;20041;-78
2024/01/23 01:58:42;;;;;;;19.92;4.78;;;9.90;99.90;;;;;;5049463;28;20043;-76
2024/01/23 02:01:10;;;;;;;22.55;5.05;;;9.70;99.90;;;;;;5048102;28;20041;-79
2024/01/23 02:03:36;;;;;;;20.60;5.30;;;9.60;99.90;;;;;;5069524;28;20054;-79
2024/01/23 02:06:04;;;;;;;18.77;4.97;;;9.60;99.90;;;;;;5059570;28;20377;-77
2024/01/23 02:08:30;;;;;;;23.73;4.93;;;9.80;99.90;;;;;;5043232;28;20161;-78
2024/01/23 02:10:56;;;;;;;20.75;5.30;;;9.80;99.90;;;;;;5051033;28;20127;-77
2024/01/23 02:13:22;;;;;;;26.55;6.13;;;9.50;99.90;;;;;;5065881;28;20041;-80
2024/01/23 02:15:48;;;;;;;18.33;5.22;;;9.40;99.90;;;;;;5054317;28;20037;-77
2024/01/23 02:18:14;;;;;;;26.60;6.10;;;9.70;99.90;;;;;;5074255;28;20029;-78
2024/01/23 02:20:40;;;;;;;19.73;5.65;;;9.50;99.90;;;;;;5037085;28;20044;-77
2024/01/23 02:23:14;;;;;;;21.58;5.32;;;9.50;99.90;;;;;;5054742;28;20488;-78
2024/01/23 02:25:41;;;;;;;21.70;5.97;;;9.60;99.90;;;;;;5034677;28;20039;-78
2024/01/23 02:28:07;;;;;;;24.45;5.53;;;9.30;99.90;;;;;;5046713;28;20079;-77
2024/01/23 02:30:35;;;;;;;20.92;5.45;;;9.70;99.90;;;;;;5046881;28;20575;-79
2024/01/23 02:33:03;;;;;;;17.63;5.72;;;9.40;99.90;;;;;;5049953;28;20078;-79
2024/01/23 02:35:30;;;;;;;21.75;5.28;;;9.60;99.90;;;;;;5036193;28;20795;-79
2024/01/23 02:37:56;;;;;;;22.55;5.53;;;9.40;99.90;;;;;;5063370;28;20164;-77
2024/01/23 02:40:21;;;;;;;30.33;6.10;;;9.80;99.90;;;;;;5066660;28;20056;-79
2024/01/23 02:42:47;;;;;;;19.25;5.43;;;9.90;99.90;;;;;;5035729;28;20129;-78
2024/01/23 02:45:13;;;;;;;19.88;5.10;;;9.40;99.90;;;;;;5047279;28;20055;-79
2024/01/23 02:47:39;;;;;;;28.38;6.57;;;9.80;99.90;;;;;;5051371;28;20036;-78
2024/01/23 02:50:05;;;;;;;20.65;5.32;;;9.90;99.90;;;;;;5031254;28;20036;-79
2024/01/23 02:52:31;;;;;;;25.23;5.93;;;9.60;99.90;;;;;;5047030;28;20037;-81
2024/01/23 02:54:58;;;;;;;26.80;6.47;;;9.50;99.90;;;;;;5033506;28;20037;-79
2024/01/23 02:57:25;;;;;;;24.23;5.70;;;10.00;97.10;;;;;;5061694;28;20047;-78
2024/01/23 02:59:52;;;;;;;27.27;6.28;;;9.70;84.40;;;;;;5033764;28;20064;-79
2024/01/23 03:02:18;;;;;;;22.45;5.70;;;9.80;57.50;;;;;;5046502;28;20037;-78
2024/01/23 03:04:44;;;;;;;22.20;5.78;;;9.80;41.20;;;;;;5031701;28;20044;-79
2024/01/23 03:07:10;;;;;;;24.13;6.00;;;10.20;37.60;;;;;;5042831;28;20036;-79
2024/01/23 03:09:36;;;;;;;23.23;6.50;;;9.70;31.70;;;;;;5025199;28;20029;-79
2024/01/23 03:12:13;;;;;;;24.15;5.72;;;9.60;15.90;;;;;;5045915;28;20549;-81
2024/01/23 03:14:39;;;;;;;26.42;6.40;;;10.20;12.80;;;;;;5064046;28;20396;-77
2024/01/23 03:17:05;;;;;;;24.77;6.20;;;9.60;12.60;;;;;;5010009;28;20051;-80
2024/01/23 03:19:30;;;;;;;21.05;5.65;;;10.10;1.00;;;;;;5050920;28;20075;-77
2024/01/23 03:21:56;;;;;;;27.48;6.20;;;9.70;1.00;;;;;;5034388;28;20055;-78
2024/01/23 03:24:21;;;;;;;20.92;5.53;;;9.90;1.00;;;;;;5049482;28;20064;-79
2024/01/23 03:26:47;;;;;;;24.27;6.07;;;10.20;1.00;;;;;;5088673;28;20473;-79
2024/01/23 03:29:13;;;;;;;21.35;5.35;;;10.10;1.00;;;;;;5063583;28;20075;-79
2024/01/23 03:31:39;;;;;;;23.67;5.35;;;10.10;1.00;;;;;;5050903;28;20037;-79
2024/01/23 03:34:04;;;;;;;23.90;6.13;;;9.80;1.00;;;;;;5034583;28;20036;-78
2024/01/23 03:36:30;;;;;;;30.95;6.60;;;9.70;1.00;;;;;;5014439;28;20500;-78
2024/01/23 03:38:56;;;;;;;22.48;6.47;;;9.90;1.00;;;;;;5065719;28;20032;-78
2024/01/23 03:41:21;;;;;;;22.58;6.00;;;9.80;1.00;;;;;;5050111;28;20044;-78
2024/01/23 03:43:47;;;;;;;24.95;5.75;;;9.80;1.00;;;;;;5032334;28;21471;-79
2024/01/23 03:46:13;;;;;;;24.05;6.47;;;10.20;1.00;;;;;;5058008;28;20047;-79
2024/01/23 03:48:40;;;;;;;25.20;6.82;;;9.70;1.00;;;;;;5046189;28;20436;-80
2024/01/23 03:51:06;;;;;;;24.35;6.15;;;9.80;1.00;;;;;;5069015;28;20052;-79
2024/01/23 03:53:32;;;;;;;27.92;6.50;;;10.00;1.00;;;;;;5050150;28;20090;-78
2024/01/23 03:55:58;;;;;;;24.17;6.07;;;10.20;1.00;;;;;;5052292;28;20072;-80
2024/01/23 03:58:24;;;;;;;24.40;5.72;;;9.80;1.00;;;;;;5069780;28;20041;-77
2024/01/23 04:00:50;;;;;;;28.42;6.15;;;10.30;1.00;;;;;;5034214;28;20049;-80
2024/01/23 04:03:15;;;;;;;21.42;5.93;;;10.30;1.00;;;;;;5065331;28;20044;-77
2024/01/23 04:05:41;;;;;;;22.77;5.97;;;10.30;1.00;;;;;;5051112;28;20043;-82
2024/01/23 04:08:08;;;;;;;24.60;7.00;;;10.40;1.00;;;;;;5031878;28;20049;-78
2024/01/23 04:10:33;;;;;;;25.60;6.40;;;10.50;1.00;;;;;;5067772;28;20511;-79
2024/01/23 04:12:59;;;;;;;24.05;6.35;;;10.50;1.00;;;;;;5030998;28;20119;-79
2024/01/23 04:15:26;;;;;;;23.65;5.75;;;10.20;1.00;;;;;;5031481;28;20036;-79
2024/01/23 04:17:55;;;;;;;34.03;7.35;;;10.20;1.00;;;;;;5037223;28;20036;-79
2024/01/23 04:20:21;;;;;;;26.13;6.70;;;10.00;1.00;;;;;;5061591;28;20052;-81
2024/01/23 04:22:46;;;;;;;23.70;6.25;;;10.00;1.00;;;;;;5032605;28;20112;-80
2024/01/23 04:25:12;;;;;;;21.50;6.10;;;10.50;1.00;;;;;;5050017;28;20400;-81
2024/01/23 04:27:38;;;;;;;27.60;7.20;;;10.00;1.00;;;;;;5051296;28;20040;-80
2024/01/23 04:30:04;;;;;;;23.73;6.15;;;10.30;1.00;;;;;;5070706;28;20049;-78
2024/01/23 04:32:30;;;;;;;26.42;6.65;;;10.30;1.00;;;;;;5046450;28;20040;-83
2024/01/23 04:34:56;;;;;;;27.33;7.03;;;10.60;1.00;;;;;;5049944;28;20036;-80
2024/01/23 04:37:22;;;;;;;25.13;6.88;;;10.50;1.00;;;;;;5066789;28;20044;-79
2024/01/23 04:39:48;;;;;;;25.73;6.88;;;10.50;1.00;;;;;;5043244;28;20055;-79
2024/01/23 04:42:14;;;;;;;24.45;6.80;;;10.10;1.00;;;;;;5045709;28;20036;-80
2024/01/23 04:44:39;;;;;;;22.95;6.20;;;10.10;1.00;;;;;;5049482;28;20044;-78
2024/01/23 04:47:05;;;;;;;25.38;7.05;;;10.60;1.00;;;;;;5015826;28;20150;-78
2024/01/23 04:49:31;;;;;;;28.52;6.85;;;10.40;1.00;;;;;;5065816;28;20040;-79
2024/01/23 04:51:57;;;;;;;33.03;7.53;;;10.60;1.00;;;;;;5065466;28;20788;-80
2024/01/23 04:54:23;;;;;;;25.35;6.50;;;10.20;1.00;;;;;;5050657;28;20031;-79
2024/01/23 04:56:49;;;;;;;30.30;7.18;;;10.20;1.00;;;;;;5050709;28;20044;-78
2024/01/23 04:59:15;;;;;;;37.08;7.53;;;10.40;1.00;;;;;;5027010;28;20045;-79
2024/01/23 05:01:41;;;;;;;28.77;6.65;;;10.60;1.00;;;;;;5047570;28;20127;-81
2024/01/23 05:04:07;;;;;;;34.03;7.78;;;10.40;1.00;;;;;;5050081;28;20472;-79
2024/01/23 05:06:33;;;;;;;32.35;8.57;;;10.40;1.00;;;;;;5050935;28;20595;-79
2024/01/23 05:08:58;;;;;;;25.42;6.93;;;10.30;1.00;;;;;;5068143;28;20033;-79
2024/01/23 05:11:24;;;;;;;34.25;6.88;;;10.50;1.00;;;;;;5017809;28;20554;-81
2024/01/23 05:13:50;;;;;;;31.30;7.50;;;10.30;1.00;;;;;;5048698;28;20123;-80
2024/01/23 05:16:15;;;;;;;31.20;7.07;;;10.40;1.00;;;;;;5032777;28;20032;-80
2024/01/23 05:18:41;;;;;;;30.00;6.47;;;10.30;1.00;;;;;;5050868;28;20557;-80
2024/01/23 05:21:08;;;;;;;27.58;6.78;;;10.70;1.00;;;;;;5031723;28;20036;-79
2024/01/23 05:23:33;;;;;;;27.58;6.60;;;10.60;1.00;;;;;;5044114;28;20029;-78
2024/01/23 05:25:59;;;;;;;30.10;6.80;;;10.80;1.00;;;;;;5054935;28;20037;-80
2024/01/23 05:28:25;;;;;;;25.73;7.13;;;10.50;1.00;;;;;;5054908;28;20040;-79
2024/01/23 05:30:50;;;;;;;31.67;7.10;;;10.70;1.00;;;;;;5051612;28;20060;-80
2024/01/23 05:33:16;;;;;;;30.83;7.25;;;10.30;6.90;;;;;;5051848;28;20040;-81
2024/01/23 05:35:42;;;;;;;29.10;7.70;;;10.30;1.00;;;;;;5068592;28;20059;-80
2024/01/23 05:38:07;;;;;;;28.23;7.38;;;10.30;1.00;;;;;;5067160;28;20576;-80
2024/01/23 05:40:33;;;;;;;30.15;6.70;;;10.40;1.00;;;;;;5049226;28;20044;-79
2024/01/23 05:42:59;;;;;;;27.63;7.10;;;10.30;1.00;;;;;;5063976;28;20044;-79
2024/01/23 05:45:24;;;;;;;31.00;7.18;;;10.60;1.00;;;;;;5035004;28;20036;-81
2024/01/23 05:47:50;;;;;;;28.27;6.88;;;10.30;1.00;;;;;;5068217;28;20074;-81
2024/01/23 05:50:16;;;;;;;34.08;7.75;;;10.50;12.70;;;;;;5063330;28;20548;-79
2024/01/23 05:52:41;;;;;;;25.88;7.80;;;10.40;26.80;;;;;;5074873;28;20050;-79
2024/01/23 05:55:08;;;;;;;34.03;7.80;;;10.60;23.50;;;;;;5033864;28;20044;-81
2024/01/23 05:57:35;;;;;;;31.63;6.80;;;10.60;29.00;;;;;;5064345;28;20036;-82
2024/01/23 06:00:05;;;;;;;33.63;7.75;;;10.50;60.80;;;;;;5049768;28;20049;-80
2024/01/23 06:02:31;;;;;;;31.08;7.32;;;10.60;70.80;;;;;;5047055;28;20041;-81
2024/01/23 06:04:57;;;;;;;35.63;7.80;;;10.70;78.00;;;;;;5050615;28;20044;-80
2024/01/23 06:07:22;;;;;;;33.63;8.13;;;10.60;98.10;;;;;;5050207;28;20037;-83
2024/01/23 06:09:48;;;;;;;36.30;7.88;;;10.10;99.90;;;;;;5052786;28;20049;-82
2024/01/23 06:12:14;;;;;;;30.95;8.10;;;10.40;99.90;;;;;;5029151;28;20458;-78
2024/01/23 06:14:39;;;;;;;29.77;7.40;;;10.50;99.90;;;;;;5066287;28;20036;-81
2024/01/23 06:17:05;;;;;;;26.70;7.40;;;9.90;99.90;;;;;;5051956;28;20037;-78
2024/01/23 06:19:31;;;;;;;35.95;8.43;;;10.40;99.90;;;;;;5040576;28;20044;-80
2024/01/23 06:21:56;;;;;;;37.83;8.70;;;10.00;99.90;;;;;;5061861;28;20063;-80
2024/01/23 06:24:22;;;;;;;32.28;7.03;;;10.10;99.90;;;;;;5051044;28;20119;-80
2024/01/23 06:26:49;;;;;;;28.52;7.22;;;9.60;99.90;;;;;;5051554;28;20052;-79
2024/01/23 06:29:15;;;;;;;31.75;8.25;;;10.10;99.90;;;;;;5030538;28;20088;-79
2024/01/23 06:31:41;;;;;;;32.90;7.90;;;9.60;99.90;;;;;;5050895;28;20586;-78
2024/01/23 06:34:07;;;;;;;32.13;8.27;;;9.80;99.90;;;;;;5068853;28;20076;-80
2024/01/23 06:36:36;;;;;;;38.28;8.27;;;10.00;99.90;;;;;;5065301;28;20060;-83
2024/01/23 06:39:01;;;;;;;37.65;8.25;;;9.60;99.90;;;;;;5049584;28;20192;-80
2024/01/23 06:41:27;;;;;;;39.20;8.20;;;9.30;99.90;;;;;;5061377;28;20117;-79
2024/01/23 06:43:53;;;;;;;37.17;8.77;;;9.50;99.90;;;;;;5055462;28;20041;-74
2024/01/23 06:46:20;;;;;;;33.97;8.38;;;9.50;99.90;;;;;;5041369;28;20048;-80
2024/01/23 06:48:45;;;;;;;37.17;9.07;;;9.80;99.90;;;;;;5048469;28;20047;-78
2024/01/23 06:51:11;;;;;;;33.85;9.40;;;9.80;1.00;;;;;;5067783;28;20037;-76
2024/01/23 06:53:37;;;;;;;34.88;8.98;;;9.20;1.00;;;;;;5067145;28;20047;-78
2024/01/23 06:56:03;;;;;;;39.90;9.40;;;9.80;1.00;;;;;;5047148;28;20043;-78
2024/01/23 06:58:29;;;;;;;38.60;8.70;;;9.70;1.00;;;;;;5032350;28;20041;-81
2024/01/23 07:00:55;;;;;;;41.80;9.52;;;9.50;1.00;;;;;;5063658;28;20485;-80
2024/01/23 07:03:20;;;;;;;40.40;9.10;;;9.70;1.00;;;;;;5065315;28;20040;-79
2024/01/23 07:05:46;;;;;;;38.83;10.30;;;9.60;1.00;;;;;;5032864;28;20049;-75
2024/01/23 07:08:12;;;;;;;36.10;9.93;;;9.10;1.00;;;;;;5061758;28;20424;-75
2024/01/23 07:10:38;;;;;;;42.35;8.88;;;9.20;1.00;;;;;;5051003;28;20189;-79
2024/01/23 07:13:03;;;;;;;29.83;8.00;;;9.30;1.00;;;;;;5068016;28;20044;-79
2024/01/23 07:15:29;;;;;;;40.00;9.13;;;9.70;1.00;;;;;;5048730;28;20107;-76
2024/01/23 07:17:55;;;;;;;39.70;7.93;;;9.70;1.00;;;;;;5067886;28;20032;-80
2024/01/23 07:20:20;;;;;;;37.03;9.13;;;9.20;1.00;;;;;;5064772;28;20106;-74
2024/01/23 07:22:46;;;;;;;44.22;9.40;;;9.00;1.00;;;;;;5033598;28;20040;-78
2024/01/23 07:25:12;;;;;;;33.13;8.48;;;9.70;1.00;;;;;;5070196;28;20117;-76
2024/01/23 07:27:38;;;;;;;41.97;10.80;;;9.00;1.00;;;;;;5061716;28;20042;-77
2024/01/23 07:30:04;;;;;;;40.58;9.73;;;9.60;1.20;;;;;;5032807;28;20041;-80
2024/01/23 07:32:30;;;;;;;50.97;9.50;;;9.10;1.90;;;;;;5050303;28;20384;-77
2024/01/23 07:34:55;;;;;;;40.55;10.77;;;9.00;1.00;;;;;;5050531;28;20029;-76
2024/01/23 07:37:21;;;;;;;37.92;10.15;;;9.10;20.60;;;;;;5044155;28;20413;-77
2024/01/23 07:39:49;;;;;;;35.05;8.57;;;9.20;24.00;;;;;;5055766;28;20068;-79
2024/01/23 07:42:14;;;;;;;38.33;9.57;;;9.70;16.10;;;;;;5059824;28;20131;-80
2024/01/23 07:44:42;;;;;;;42.22;9.63;;;9.60;13.60;;;;;;5054084;28;20489;-79
2024/01/23 07:47:08;;;;;;;33.08;8.50;;;9.30;21.10;;;;;;5036881;28;20068;-78
2024/01/23 07:49:34;;;;;;;38.15;8.77;;;9.70;15.30;;;;;;5036499;28;20469;-79
2024/01/23 07:51:59;;;;;;;38.28;9.68;;;9.70;17.10;;;;;;5037972;28;20061;-78
2024/01/23 07:54:25;;;;;;;34.50;8.77;;;9.50;1.70;;;;;;5035704;28;20039;-77
2024/01/23 07:56:51;;;;;;;32.75;9.10;;;9.60;10.90;;;;;;5038924;28;20049;-81
2024/01/23 07:59:17;;;;;;;46.72;9.15;;;9.20;6.90;;;;;;5040995;28;20079;-77
2024/01/23 08:01:43;;;;;;;31.95;8.30;;;9.70;1.00;;;;;;5075007;28;20638;-79
2024/01/23 08:04:10;;;;;;;36.50;8.35;;;9.40;9.40;;;;;;5063582;28;20060;-79
2024/01/23 08:06:37;;;;;;;31.83;8.73;;;9.00;12.00;;;;;;5054470;28;20047;-80
2024/01/23 08:09:04;;;;;;;44.53;10.05;;;9.10;17.80;;;;;;5054752;28;20408;-78
2024/01/23 08:11:31;;;;;;;36.53;9.20;;;9.00;25.90;;;;;;5042249;28;20037;-77
2024/01/23 08:13:57;;;;;;;32.42;8.40;;;9.70;17.90;;;;;;5043580;28;20037;-79
2024/01/23 08:16:25;;;;;;;44.50;9.70;;;9.40;18.40;;;;;;5027378;28;20102;-80
2024/01/23 08:18:50;;;;;;;36.40;8.75;;;9.30;24.00;;;;;;5039777;28;20114;-78
2024/01/23 08:21:17;;;;;;;34.63;7.90;;;9.80;27.40;;;;;;5029135;28;20036;-82
2024/01/23 08:23:46;;;;;;;37.13;9.98;;;9.30;26.30;;;;;;5065727;28;20055;-78
2024/01/23 08:26:12;;;;;;;40.60;9.05;;;9.40;43.00;;;;;;5063986;28;20121;-79
2024/01/23 08:28:41;;;;;;;35.85;9.55;;;9.70;40.40;;;;;;5038953;28;20049;-78
2024/01/23 08:31:07;;;;;;;41.45;9.63;;;9.90;30.80;;;;;;5037112;28;20048;-78
2024/01/23 08:33:34;;;;;;;37.65;9.45;;;9.80;33.40;;;;;;5040715;28;20044;-79
2024/01/23 08:36:01;;;;;;;39.15;9.02;;;9.90;29.70;;;;;;5038193;28;20749;-79
2024/01/23 08:38:29;;;;;;;39.22;9.73;;;9.50;33.70;;;;;;5063443;28;20039;-80
2024/01/23 08:40:55;;;;;;;35.83;9.35;;;10.30;43.00;;;;;;5032197;28;20601;-79
2024/01/23 08:43:21;;;;;;;43.03;8.90;;;9.90;12.80;;;;;;5034516;28;20086;-79
2024/01/23 08:45:47;;;;;;;34.13;8.65;;;10.20;1.00;;;;;;5047600;28;20400;-77
2024/01/23 08:48:13;;;;;;;44.72;9.60;;;9.90;1.00;;;;;;5069154;28;20048;-79
2024/01/23 08:50:40;;;;;;;37.05;8.55;;;10.60;1.00;;;;;;5034108;28;20044;-79
2024/01/23 08:53:06;;;;;;;35.70;8.73;;;10.70;1.00;;;;;;5070162;28;20675;-79
2024/01/23 08:55:32;;;;;;;39.08;8.45;;;10.70;1.00;;;;;;5053960;28;20048;-80
2024/01/23 08:57:58;;;;;;;36.20;8.75;;;10.20;99.90;;;;;;5054668;28;20063;-79
2024/01/23 09:00:24;;;;;;;40.15;8.52;;;10.70;99.90;;;;;;5055022;28;20036;-79
2024/01/23 09:02:49;;;;;;;39.30;9.13;;;10.80;99.90;;;;;;5034395;28;20119;-80
2024/01/23 09:05:15;;;;;;;36.30;8.20;;;10.30;99.90;;;;;;5068624;28;20124;-79
2024/01/23 09:07:41;;;;;;;35.03;7.65;;;11.10;99.90;;;;;;5037891;28;20040;-82
2024/01/23 09:10:07;;;;;;;29.33;7.32;;;11.20;99.90;;;;;;5055084;28;20094;-79
2024/01/23 09:12:35;;;;;;;36.65;7.85;;;11.10;99.90;;;;;;5037516;28;20037;-79
2024/01/23 09:15:01;;;;;;;30.48;8.05;;;11.20;99.90;;;;;;5054451;28;20171;-80
2024/01/23 09:17:27;;;;;;;35.20;8.07;;;11.10;99.90;;;;;;5070714;28;20132;-79
2024/01/23 09:19:52;;;;;;;32.17;7.28;;;10.80;99.90;;;;;;5054307;28;20048;-81
2024/01/23 09:22:18;;;;;;;28.73;7.07;;;10.60;99.90;;;;;;5034693;28;20462;-81
2024/01/23 09:24:44;;;;;;;31.45;7.43;;;11.30;99.90;;;;;;5037252;28;20052;-79
2024/01/23 09:27:10;;;;;;;35.83;8.20;;;11.60;99.90;;;;;;5054282;28;20086;-80
2024/01/23 09:29:37;;;;;;;30.90;7.00;;;11.70;76.50;;;;;;5054329;28;20441;-79
2024/01/23 09:32:03;;;;;;;27.70;7.15;;;12.20;8.70;;;;;;5054442;28;20079;-79
2024/01/23 09:34:29;;;;;;;31.45;7.68;;;11.80;1.00;;;;;;5054288;28;20040;-79
2024/01/23 09:36:54;;;;;;;30.30;7.80;;;11.80;99.90;;;;;;5053760;28;20036;-80
2024/01/23 09:39:21;;;;;;;36.65;8.85;;;12.00;99.90;;;;;;5054367;28;20045;-81
2024/01/23 09:41:51;;;;;;;32.90;7.88;;;12.40;99.90;;;;;;5037788;28;20048;-79
2024/01/23 09:44:20;;;;;;;27.92;7.07;;;12.70;99.90;;;;;;5070792;28;20040;-79
2024/01/23 09:46:50;;;;;;;32.15;7.82;;;12.70;99.90;;;;;;5070414;28;20060;-80
2024/01/23 09:49:16;;;;;;;34.05;7.32;;;12.90;88.10;;;;;;5053951;28;20040;-82
2024/01/23 09:51:47;;;;;;;28.52;7.35;;;12.70;1.00;;;;;;5037595;28;20059;-80
2024/01/23 09:54:13;;;;;;;28.60;7.57;;;12.60;1.00;;;;;;5054780;28;20194;-79
2024/01/23 09:56:40;;;;;;;25.90;7.00;;;12.70;1.00;;;;;;5033753;28;20072;-80
2024/01/23 09:59:08;;;;;;;24.35;6.30;;;13.20;99.90;;;;;;5065849;28;20484;-79
2024/01/23 10:01:34;;;;;;;30.50;7.38;;;12.90;99.90;;;;;;5070755;28;20036;-79
2024/01/23 10:04:04;;;;;;;29.00;7.18;;;13.40;99.90;;;;;;5054062;28;20350;-81
2024/01/23 10:06:33;;;;;;;23.48;6.75;;;13.50;1.00;;;;;;5036755;28;20043;-81
2024/01/23 10:08:59;;;;;;;30.20;6.55;;;12.80;99.90;;;;;;5054337;28;20047;-81
2024/01/23 10:11:32;;;;;;;25.20;6.28;;;12.60;99.90;;;;;;5070086;28;20072;-81
2024/01/23 10:14:01;;;;;;;32.78;7.25;;;13.10;99.90;;;;;;5069498;28;20044;-81
2024/01/23 10:16:27;;;;;;;28.25;6.82;;;13.00;99.90;;;;;;5053304;28;20633;-81
2024/01/23 10:18:55;;;;;;;28.15;6.97;;;13.30;99.90;;;;;;5036368;28;20072;-82
2024/01/23 10:21:21;;;;;;;26.23;6.70;;;13.50;99.90;;;;;;5053729;28;20094;-82
2024/01/23 10:23:53;;;;;;;27.52;6.05;;;13.40;99.90;;;;;;5036505;28;20033;-82
2024/01/23 10:26:20;;;;;;;25.77;6.75;;;13.40;99.90;;;;;;5069401;28;20574;-81
2024/01/23 10:28:47;;;;;;;27.25;6.32;;;13.70;99.90;;;;;;5052786;28;20136;-81
2024/01/23 10:31:13;;;;;;;28.08;7.43;;;13.70;99.90;;;;;;5036568;28;20052;-81
2024/01/23 10:33:40;;;;;;;23.63;5.30;;;13.90;92.70;;;;;;5052989;28;20423;-82
2024/01/23 10:36:10;;;;;;;28.15;6.35;;;14.10;37.50;;;;;;5052746;28;20044;-82
2024/01/23 10:38:36;;;;;;;29.20;5.25;;;14.10;1.00;;;;;;5053162;28;20044;-83
2024/01/23 10:41:06;;;;;;;24.40;5.63;;;14.10;1.00;;;;;;5069640;28;20052;-82
2024/01/23 10:43:33;;;;;;;20.60;5.30;;;14.00;1.00;;;;;;5053133;28;20072;-81
2024/01/23 10:45:59;;;;;;;27.85;5.85;;;14.00;1.00;;;;;;5053309;28;20510;-80
2024/01/23 10:48:25;;;;;;;23.00;6.32;;;14.10;99.90;;;;;;5036687;28;20037;-82
2024/01/23 10:50:55;;;;;;;27.70;6.53;;;14.40;99.90;;;;;;5052679;28;20507;-82
2024/01/23 10:53:24;;;;;;;31.33;7.68;;;14.20;99.90;;;;;;5062065;28;20062;-84
2024/01/23 10:55:55;;;;;;;18.60;5.28;;;14.10;99.90;;;;;;5036643;28;20036;-84
2024/01/23 10:58:35;;;;;;;29.23;6.05;;;14.40;99.90;;;;;;5069723;28;20040;-82
2024/01/23 11:01:03;;;;;;;28.73;6.07;;;14.10;99.90;;;;;;5052511;28;20036;-82
2024/01/23 11:03:32;;;;;;;24.60;6.60;;;14.10;99.90;;;;;;5036230;28;20378;-82
2024/01/23 11:06:04;;;;;;;28.05;6.10;;;14.20;99.90;;;;;;5051646;28;20044;-81
2024/01/23 11:08:36;;;;;;;24.80;6.47;;;14.10;99.90;;;;;;5069270;28;20478;-80
2024/01/23 11:11:13;;;;;;;25.15;6.45;;;13.90;59.90;;;;;;5084395;28;20045;-84
2024/01/23 11:13:44;;;;;;;23.83;6.22;;;13.90;1.00;;;;;;5052348;28;20052;-83
2024/01/23 11:16:10;;;;;;;26.15;5.32;;;14.30;10.50;;;;;;5051979;28;20083;-82
2024/01/23 11:18:36;;;;;;;24.80;5.80;;;14.30;99.20;;;;;;5052645;28;20124;-83
2024/01/23 11:21:05;;;;;;;27.67;6.50;;;14.00;21.40;;;;;;5035411;28;20467;-82
2024/01/23 11:23:35;;;;;;;25.45;5.75;;;13.70;1.00;;;;;;5069065;28;20392;-81
2024/01/23 11:26:19;;;;;;;37.63;6.47;;;13.70;99.90;;;;;;5052239;28;20481;-81
2024/01/23 11:29:07;;;;;;;23.92;5.82;;;13.60;99.90;;;;;;5068255;28;20040;-79
2024/01/23 11:31:40;;;;;;;25.40;6.10;;;13.40;99.90;;;;;;5051340;28;20206;-82
2024/01/23 11:34:31;;;;;;;27.13;6.18;;;13.10;99.90;;;;;;5051130;28;20055;-80
2024/01/23 11:36:56;;;;;;;27.15;5.88;;;13.50;99.90;;;;;;5046221;28;20087;-81
2024/01/23 11:39:25;;;;;;;27.73;6.78;;;13.30;99.90;;;;;;5051553;28;20145;-84
2024/01/23 11:41:52;;;;;;;27.58;5.63;;;13.00;99.90;;;;;;5051676;28;20051;-82
2024/01/23 11:44:19;;;;;;;28.08;6.90;;;13.00;99.90;;;;;;5058101;28;20480;-84
2024/01/23 11:46:49;;;;;;;29.20;7.25;;;12.90;99.90;;;;;;5068097;28;20043;-82
2024/01/23 11:49:18;;;;;;;29.73;6.90;;;12.80;99.90;;;;;;5052047;28;20033;-82
2024/01/23 11:51:44;;;;;;;22.45;6.32;;;12.90;1.00;;;;;;5052487;28;20161;-80
2024/01/23 11:54:11;;;;;;;26.92;5.65;;;12.80;99.90;;;;;;5052077;28;20075;-84
2024/01/23 11:56:37;;;;;;;24.50;5.75;;;13.00;99.90;;;;;;5050635;28;20064;-80
2024/01/23 11:59:03;;;;;;;23.70;6.63;;;13.00;99.90;;;;;;5081725;28;20037;-82
2024/01/23 12:01:35;;;;;;;23.52;6.03;;;12.70;99.90;;;;;;5082126;28;20089;-82
2024/01/23 12:04:02;;;;;;;30.83;6.50;;;12.70;1.00;;;;;;5082401;28;20503;-80
2024/01/23 12:06:29;;;;;;;26.83;5.78;;;12.70;1.00;;;;;;5046073;28;20043;-81
2024/01/23 12:08:55;;;;;;;25.80;6.22;;;12.40;1.00;;;;;;5034939;28;20044;-81
2024/01/23 12:11:21;;;;;;;31.00;6.30;;;12.40;45.60;;;;;;5051878;28;20132;-81
2024/01/23 12:13:48;;;;;;;24.05;6.05;;;12.40;1.00;;;;;;5035720;28;20174;-81
2024/01/23 12:16:14;;;;;;;29.83;6.45;;;12.40;17.10;;;;;;5034392;28;20037;-81
2024/01/23 12:18:40;;;;;;;23.95;5.93;;;12.50;33.80;;;;;;5033949;28;20037;-80
2024/01/23 12:21:07;;;;;;;22.92;6.30;;;12.60;99.90;;;;;;5052475;28;20812;-81
2024/01/23 12:23:33;;;;;;;24.33;6.43;;;12.70;99.90;;;;;;5053340;28;20045;-84
2024/01/23 12:26:03;;;;;;;28.48;6.72;;;13.10;99.90;;;;;;5055592;28;20033;-81
2024/01/23 12:28:32;;;;;;;24.23;6.43;;;12.90;1.00;;;;;;5071961;28;20044;-83
2024/01/23 12:30:58;;;;;;;26.17;5.80;;;12.60;1.00;;;;;;5038737;28;20060;-79
2024/01/23 12:33:25;;;;;;;23.85;5.15;;;12.50;1.00;;;;;;5055098;28;20100;-79
2024/01/23 12:35:52;;;;;;;21.48;6.00;;;12.70;14.10;;;;;;5054715;28;20115;-80
2024/01/23 12:38:19;;;;;;;30.90;6.22;;;12.80;65.60;;;;;;5072191;28;20052;-81
2024/01/23 12:40:45;;;;;;;26.33;6.40;;;12.90;29.60;;;;;;5039175;28;20043;-81
2024/01/23 12:43:11;;;;;;;25.67;5.93;;;12.60;1.00;;;;;;5054745;28;20036;-80